sensor_id;sensor_type;location;lat;lon;timestamp;P1;durP1;ratioP1;P2;durP2;ratioP2
44588;SDS011;30298;52.562;13.414;2023-04-01T00:01:13;9.57;;;3.77;;
44588;SDS011;30298;52.562;13.414;2023-04-01T00:03:42;6.25;;;3.80;;
44588;SDS011;30298;52.562;13.414;2023-04-01T00:06:08;5.25;;;4.00;;
44588;SDS011;30298;52.562;13.414;2023-04-01T00:08:34;9.88;;;4.13;;
44588;SDS011;30298;52.562;13.414;2023-04-01T00:10:59;7.03;;;4.10;;
44588;SDS011;30298;52.562;13.414;2023-04-01T00:13:25;7.03;;;3.97;;
44588;SDS011;30298;52.562;13.414;2023-04-01T00:15:51;6.32;;;3.65;;
44588;SDS011;30298;52.562;13.414;2023-04-01T00:18:16;7.85;;;4.22;;
44588;SDS011;30298;52.562;13.414;2023-04-01T00:20:45;10.30;;;3.60;;
44588;SDS011;30298;52.562;13.414;2023-04-01T00:23:11;5.53;;;3.45;;
44588;SDS011;30298;52.562;13.414;2023-04-01T00:25:36;4.03;;;3.43;;
44588;SDS011;30298;52.562;13.414;2023-04-01T00:28:01;6.80;;;3.10;;
44588;SDS011;30298;52.562;13.414;2023-04-01T00:30:26;9.10;;;3.50;;
44588;SDS011;30298;52.562;13.414;2023-04-01T00:32:52;6.40;;;3.10;;
44588;SDS011;30298;52.562;13.414;2023-04-01T00:35:18;4.30;;;3.28;;
44588;SDS011;30298;52.562;13.414;2023-04-01T00:37:43;5.10;;;3.43;;
44588;SDS011;30298;52.562;13.414;2023-04-01T00:40:19;5.93;;;3.93;;
44588;SDS011;30298;52.562;13.414;2023-04-01T00:42:47;6.78;;;3.50;;
44588;SDS011;30298;52.562;13.414;2023-04-01T00:47:53;6.85;;;4.07;;
44588;SDS011;30298;52.562;13.414;2023-04-01T00:50:19;9.38;;;3.88;;
44588;SDS011;30298;52.562;13.414;2023-04-01T00:52:44;6.68;;;3.85;;
44588;SDS011;30298;52.562;13.414;2023-04-01T00:55:11;7.15;;;3.30;;
44588;SDS011;30298;52.562;13.414;2023-04-01T00:57:38;7.45;;;4.20;;
44588;SDS011;30298;52.562;13.414;2023-04-01T01:00:06;5.63;;;4.00;;
44588;SDS011;30298;52.562;13.414;2023-04-01T01:02:34;6.38;;;3.67;;
44588;SDS011;30298;52.562;13.414;2023-04-01T01:04:59;7.47;;;3.70;;
44588;SDS011;30298;52.562;13.414;2023-04-01T01:15:36;8.68;;;3.90;;
44588;SDS011;30298;52.562;13.414;2023-04-01T01:33:42;5.17;;;3.30;;
44588;SDS011;30298;52.562;13.414;2023-04-01T01:36:10;6.45;;;3.90;;
44588;SDS011;30298;52.562;13.414;2023-04-01T01:38:38;7.82;;;4.40;;
44588;SDS011;30298;52.562;13.414;2023-04-01T01:41:04;7.50;;;4.10;;
44588;SDS011;30298;52.562;13.414;2023-04-01T01:43:31;9.40;;;4.93;;
44588;SDS011;30298;52.562;13.414;2023-04-01T01:45:59;9.82;;;3.80;;
44588;SDS011;30298;52.562;13.414;2023-04-01T01:48:26;5.10;;;4.00;;
44588;SDS011;30298;52.562;13.414;2023-04-01T01:50:52;7.72;;;4.18;;
44588;SDS011;30298;52.562;13.414;2023-04-01T01:53:18;8.05;;;4.82;;
44588;SDS011;30298;52.562;13.414;2023-04-01T01:55:44;13.38;;;4.40;;
44588;SDS011;30298;52.562;13.414;2023-04-01T01:58:16;6.50;;;4.20;;
44588;SDS011;30298;52.562;13.414;2023-04-01T02:00:44;7.95;;;4.38;;
44588;SDS011;30298;52.562;13.414;2023-04-01T02:03:11;7.90;;;4.22;;
44588;SDS011;30298;52.562;13.414;2023-04-01T02:05:37;7.18;;;4.30;;
44588;SDS011;30298;52.562;13.414;2023-04-01T02:08:16;7.20;;;4.07;;
44588;SDS011;30298;52.562;13.414;2023-04-01T02:10:44;6.15;;;4.15;;
44588;SDS011;30298;52.562;13.414;2023-04-01T02:13:16;10.07;;;4.10;;
44588;SDS011;30298;52.562;13.414;2023-04-01T02:15:44;6.38;;;3.75;;
44588;SDS011;30298;52.562;13.414;2023-04-01T02:18:11;7.85;;;3.92;;
44588;SDS011;30298;52.562;13.414;2023-04-01T02:20:41;6.82;;;4.25;;
44588;SDS011;30298;52.562;13.414;2023-04-01T02:23:06;9.77;;;4.15;;
44588;SDS011;30298;52.562;13.414;2023-04-01T02:25:34;8.85;;;4.82;;
44588;SDS011;30298;52.562;13.414;2023-04-01T02:28:00;10.82;;;4.15;;
44588;SDS011;30298;52.562;13.414;2023-04-01T02:30:26;6.72;;;3.90;;
44588;SDS011;30298;52.562;13.414;2023-04-01T02:32:52;7.47;;;3.60;;
44588;SDS011;30298;52.562;13.414;2023-04-01T02:35:18;7.63;;;3.92;;
44588;SDS011;30298;52.562;13.414;2023-04-01T02:37:44;8.70;;;5.03;;
44588;SDS011;30298;52.562;13.414;2023-04-01T02:40:12;8.52;;;4.50;;
44588;SDS011;30298;52.562;13.414;2023-04-01T02:42:37;9.20;;;4.60;;
44588;SDS011;30298;52.562;13.414;2023-04-01T02:45:03;7.43;;;4.40;;
44588;SDS011;30298;52.562;13.414;2023-04-01T02:47:28;7.78;;;4.00;;
44588;SDS011;30298;52.562;13.414;2023-04-01T02:49:54;9.77;;;4.10;;
44588;SDS011;30298;52.562;13.414;2023-04-01T02:52:26;8.13;;;4.10;;
44588;SDS011;30298;52.562;13.414;2023-04-01T02:54:51;9.55;;;4.30;;
44588;SDS011;30298;52.562;13.414;2023-04-01T02:57:17;6.10;;;4.40;;
44588;SDS011;30298;52.562;13.414;2023-04-01T02:59:42;11.17;;;4.47;;
44588;SDS011;30298;52.562;13.414;2023-04-01T03:02:08;9.60;;;5.10;;
44588;SDS011;30298;52.562;13.414;2023-04-01T03:04:33;7.43;;;4.40;;
44588;SDS011;30298;52.562;13.414;2023-04-01T03:06:58;13.33;;;4.50;;
44588;SDS011;30298;52.562;13.414;2023-04-01T03:09:24;6.50;;;3.90;;
44588;SDS011;30298;52.562;13.414;2023-04-01T03:11:49;10.03;;;4.13;;
44588;SDS011;30298;52.562;13.414;2023-04-01T03:14:14;8.97;;;4.90;;
44588;SDS011;30298;52.562;13.414;2023-04-01T03:16:40;8.53;;;4.40;;
44588;SDS011;30298;52.562;13.414;2023-04-01T03:19:05;7.23;;;4.73;;
44588;SDS011;30298;52.562;13.414;2023-04-01T03:21:30;12.13;;;4.20;;
44588;SDS011;30298;52.562;13.414;2023-04-01T03:23:55;9.13;;;4.03;;
44588;SDS011;30298;52.562;13.414;2023-04-01T03:26:21;7.67;;;4.20;;
44588;SDS011;30298;52.562;13.414;2023-04-01T03:28:46;8.17;;;4.40;;
44588;SDS011;30298;52.562;13.414;2023-04-01T03:31:12;5.40;;;3.95;;
44588;SDS011;30298;52.562;13.414;2023-04-01T03:33:39;6.63;;;3.60;;
44588;SDS011;30298;52.562;13.414;2023-04-01T03:36:04;7.68;;;4.18;;
44588;SDS011;30298;52.562;13.414;2023-04-01T03:38:32;6.47;;;4.00;;
44588;SDS011;30298;52.562;13.414;2023-04-01T03:40:57;11.32;;;4.40;;
44588;SDS011;30298;52.562;13.414;2023-04-01T03:43:22;7.10;;;4.20;;
44588;SDS011;30298;52.562;13.414;2023-04-01T03:45:49;9.43;;;4.50;;
44588;SDS011;30298;52.562;13.414;2023-04-01T03:50:39;10.98;;;4.32;;
44588;SDS011;30298;52.562;13.414;2023-04-01T03:53:05;8.35;;;4.25;;
44588;SDS011;30298;52.562;13.414;2023-04-01T03:55:30;12.23;;;4.47;;
44588;SDS011;30298;52.562;13.414;2023-04-01T03:57:55;8.20;;;4.23;;
44588;SDS011;30298;52.562;13.414;2023-04-01T04:00:21;6.93;;;4.07;;
44588;SDS011;30298;52.562;13.414;2023-04-01T04:02:46;8.97;;;4.93;;
44588;SDS011;30298;52.562;13.414;2023-04-01T04:05:11;9.77;;;4.73;;
44588;SDS011;30298;52.562;13.414;2023-04-01T04:07:38;7.50;;;4.25;;
44588;SDS011;30298;52.562;13.414;2023-04-01T04:10:03;9.27;;;4.23;;
44588;SDS011;30298;52.562;13.414;2023-04-01T04:12:29;6.28;;;4.43;;
44588;SDS011;30298;52.562;13.414;2023-04-01T04:14:54;9.93;;;4.60;;
44588;SDS011;30298;52.562;13.414;2023-04-01T04:17:19;7.87;;;4.67;;
44588;SDS011;30298;52.562;13.414;2023-04-01T04:19:45;9.73;;;4.27;;
44588;SDS011;30298;52.562;13.414;2023-04-01T04:22:10;9.33;;;4.47;;
44588;SDS011;30298;52.562;13.414;2023-04-01T04:24:35;7.90;;;5.20;;
44588;SDS011;30298;52.562;13.414;2023-04-01T04:27:01;7.60;;;4.50;;
44588;SDS011;30298;52.562;13.414;2023-04-01T04:29:26;10.68;;;4.75;;
44588;SDS011;30298;52.562;13.414;2023-04-01T04:31:51;9.63;;;4.40;;
44588;SDS011;30298;52.562;13.414;2023-04-01T04:34:17;13.23;;;4.80;;
44588;SDS011;30298;52.562;13.414;2023-04-01T04:39:08;10.82;;;6.45;;
44588;SDS011;30298;52.562;13.414;2023-04-01T04:41:33;12.13;;;6.07;;
44588;SDS011;30298;52.562;13.414;2023-04-01T04:44:01;10.85;;;6.50;;
44588;SDS011;30298;52.562;13.414;2023-04-01T04:46:27;12.27;;;6.40;;
44588;SDS011;30298;52.562;13.414;2023-04-01T04:48:52;13.47;;;6.93;;
44588;SDS011;30298;52.562;13.414;2023-04-01T04:51:18;14.10;;;6.83;;
44588;SDS011;30298;52.562;13.414;2023-04-01T04:56:09;11.70;;;7.20;;
44588;SDS011;30298;52.562;13.414;2023-04-01T04:58:35;11.50;;;7.07;;
44588;SDS011;30298;52.562;13.414;2023-04-01T05:01:10;11.57;;;7.18;;
44588;SDS011;30298;52.562;13.414;2023-04-01T05:03:35;14.05;;;7.43;;
44588;SDS011;30298;52.562;13.414;2023-04-01T05:06:01;14.80;;;7.23;;
44588;SDS011;30298;52.562;13.414;2023-04-01T05:08:26;13.50;;;7.33;;
44588;SDS011;30298;52.562;13.414;2023-04-01T05:10:51;17.43;;;7.77;;
44588;SDS011;30298;52.562;13.414;2023-04-01T05:13:16;14.80;;;7.50;;
44588;SDS011;30298;52.562;13.414;2023-04-01T05:15:42;14.60;;;8.57;;
44588;SDS011;30298;52.562;13.414;2023-04-01T05:18:07;12.77;;;7.73;;
44588;SDS011;30298;52.562;13.414;2023-04-01T05:20:32;21.03;;;8.77;;
44588;SDS011;30298;52.562;13.414;2023-04-01T05:22:58;20.50;;;8.70;;
44588;SDS011;30298;52.562;13.414;2023-04-01T05:25:24;11.52;;;8.02;;
44588;SDS011;30298;52.562;13.414;2023-04-01T05:27:49;14.88;;;8.93;;
44588;SDS011;30298;52.562;13.414;2023-04-01T05:30:15;16.47;;;8.60;;
44588;SDS011;30298;52.562;13.414;2023-04-01T05:32:40;16.80;;;9.67;;
44588;SDS011;30298;52.562;13.414;2023-04-01T05:35:06;18.77;;;8.57;;
44588;SDS011;30298;52.562;13.414;2023-04-01T05:37:33;18.45;;;8.32;;
44588;SDS011;30298;52.562;13.414;2023-04-01T05:39:58;14.00;;;8.63;;
44588;SDS011;30298;52.562;13.414;2023-04-01T05:42:23;16.13;;;7.97;;
44588;SDS011;30298;52.562;13.414;2023-04-01T05:44:49;18.35;;;8.18;;
44588;SDS011;30298;52.562;13.414;2023-04-01T05:47:14;21.17;;;8.87;;
44588;SDS011;30298;52.562;13.414;2023-04-01T05:49:39;21.40;;;8.57;;
44588;SDS011;30298;52.562;13.414;2023-04-01T05:52:05;17.93;;;8.10;;
44588;SDS011;30298;52.562;13.414;2023-04-01T05:54:30;18.33;;;8.77;;
44588;SDS011;30298;52.562;13.414;2023-04-01T05:56:55;18.20;;;8.57;;
44588;SDS011;30298;52.562;13.414;2023-04-01T05:59:20;16.40;;;8.90;;
44588;SDS011;30298;52.562;13.414;2023-04-01T06:01:46;17.73;;;8.43;;
44588;SDS011;30298;52.562;13.414;2023-04-01T06:04:15;23.80;;;10.80;;
44588;SDS011;30298;52.562;13.414;2023-04-01T06:06:41;19.70;;;8.82;;
44588;SDS011;30298;52.562;13.414;2023-04-01T06:09:19;16.00;;;9.70;;
44588;SDS011;30298;52.562;13.414;2023-04-01T06:14:32;19.55;;;10.02;;
44588;SDS011;30298;52.562;13.414;2023-04-01T06:17:04;20.48;;;9.77;;
44588;SDS011;30298;52.562;13.414;2023-04-01T06:22:07;17.92;;;10.40;;
44588;SDS011;30298;52.562;13.414;2023-04-01T06:27:19;20.15;;;10.63;;
44588;SDS011;30298;52.562;13.414;2023-04-01T06:29:49;15.88;;;10.20;;
44588;SDS011;30298;52.562;13.414;2023-04-01T06:40:21;21.58;;;11.30;;
44588;SDS011;30298;52.562;13.414;2023-04-01T06:48:42;22.55;;;10.50;;
44588;SDS011;30298;52.562;13.414;2023-04-01T06:53:16;16.37;;;9.33;;
44588;SDS011;30298;52.562;13.414;2023-04-01T06:55:50;19.83;;;9.50;;
44588;SDS011;30298;52.562;13.414;2023-04-01T06:58:24;21.52;;;9.60;;
44588;SDS011;30298;52.562;13.414;2023-04-01T07:01:00;18.85;;;10.77;;
44588;SDS011;30298;52.562;13.414;2023-04-01T07:03:29;18.35;;;11.43;;
44588;SDS011;30298;52.562;13.414;2023-04-01T07:06:02;24.23;;;12.70;;
44588;SDS011;30298;52.562;13.414;2023-04-01T07:08:28;16.10;;;9.40;;
44588;SDS011;30298;52.562;13.414;2023-04-01T07:11:06;20.13;;;11.52;;
44588;SDS011;30298;52.562;13.414;2023-04-01T07:13:51;18.90;;;10.50;;
44588;SDS011;30298;52.562;13.414;2023-04-01T07:16:30;22.10;;;10.57;;
44588;SDS011;30298;52.562;13.414;2023-04-01T07:23:48;18.57;;;10.00;;
44588;SDS011;30298;52.562;13.414;2023-04-01T07:26:18;15.88;;;9.82;;
44588;SDS011;30298;52.562;13.414;2023-04-01T07:28:45;17.52;;;10.80;;
44588;SDS011;30298;52.562;13.414;2023-04-01T07:36:24;23.58;;;10.48;;
44588;SDS011;30298;52.562;13.414;2023-04-01T07:39:06;18.60;;;10.88;;
44588;SDS011;30298;52.562;13.414;2023-04-01T07:49:11;21.05;;;11.25;;
44588;SDS011;30298;52.562;13.414;2023-04-01T07:56:44;11.63;;;8.00;;
44588;SDS011;30298;52.562;13.414;2023-04-01T08:04:27;7.85;;;5.05;;
44588;SDS011;30298;52.562;13.414;2023-04-01T08:07:13;9.80;;;6.50;;
44588;SDS011;30298;52.562;13.414;2023-04-01T08:12:13;7.63;;;4.93;;
44588;SDS011;30298;52.562;13.414;2023-04-01T08:22:40;9.40;;;6.13;;
44588;SDS011;30298;52.562;13.414;2023-04-01T08:25:06;10.48;;;6.63;;
44588;SDS011;30298;52.562;13.414;2023-04-01T08:27:39;10.07;;;6.15;;
44588;SDS011;30298;52.562;13.414;2023-04-01T08:33:13;11.65;;;7.30;;
44588;SDS011;30298;52.562;13.414;2023-04-01T08:35:46;12.07;;;7.32;;
44588;SDS011;30298;52.562;13.414;2023-04-01T08:38:16;12.70;;;8.23;;
44588;SDS011;30298;52.562;13.414;2023-04-01T08:40:51;16.63;;;10.02;;
44588;SDS011;30298;52.562;13.414;2023-04-01T08:43:30;14.50;;;9.50;;
44588;SDS011;30298;52.562;13.414;2023-04-01T08:56:34;14.77;;;9.77;;
44588;SDS011;30298;52.562;13.414;2023-04-01T08:59:16;15.27;;;9.90;;
44588;SDS011;30298;52.562;13.414;2023-04-01T09:07:04;15.13;;;11.48;;
44588;SDS011;30298;52.562;13.414;2023-04-01T09:21:00;14.00;;;10.63;;
44588;SDS011;30298;52.562;13.414;2023-04-01T09:25:58;13.18;;;10.23;;
44588;SDS011;30298;52.562;13.414;2023-04-01T09:39:11;13.00;;;9.82;;
44588;SDS011;30298;52.562;13.414;2023-04-01T09:41:50;11.90;;;9.65;;
44588;SDS011;30298;52.562;13.414;2023-04-01T09:45:04;11.80;;;9.18;;
44588;SDS011;30298;52.562;13.414;2023-04-01T09:49:38;11.53;;;9.83;;
44588;SDS011;30298;52.562;13.414;2023-04-01T09:52:18;12.90;;;10.32;;
44588;SDS011;30298;52.562;13.414;2023-04-01T10:00:06;12.90;;;9.75;;
44588;SDS011;30298;52.562;13.414;2023-04-01T10:21:12;14.23;;;11.07;;
44588;SDS011;30298;52.562;13.414;2023-04-01T10:36:59;13.98;;;10.18;;
44588;SDS011;30298;52.562;13.414;2023-04-01T10:39:34;13.18;;;10.82;;
44588;SDS011;30298;52.562;13.414;2023-04-01T10:49:54;13.27;;;11.27;;
44588;SDS011;30298;52.562;13.414;2023-04-01T11:00:45;12.68;;;10.30;;
44588;SDS011;30298;52.562;13.414;2023-04-01T11:14:12;12.20;;;9.82;;
44588;SDS011;30298;52.562;13.414;2023-04-01T11:24:57;11.90;;;10.35;;
44588;SDS011;30298;52.562;13.414;2023-04-01T11:32:50;13.80;;;10.02;;
44588;SDS011;30298;52.562;13.414;2023-04-01T11:40:35;13.00;;;10.95;;
44588;SDS011;30298;52.562;13.414;2023-04-01T11:45:38;11.77;;;10.23;;
44588;SDS011;30298;52.562;13.414;2023-04-01T11:58:49;12.77;;;10.65;;
44588;SDS011;30298;52.562;13.414;2023-04-01T12:19:28;12.00;;;10.63;;
44588;SDS011;30298;52.562;13.414;2023-04-01T12:24:49;14.18;;;9.88;;
44588;SDS011;30298;52.562;13.414;2023-04-01T12:27:38;13.00;;;9.90;;
44588;SDS011;30298;52.562;13.414;2023-04-01T12:38:47;12.52;;;10.18;;
44588;SDS011;30298;52.562;13.414;2023-04-01T12:44:32;16.38;;;11.43;;
44588;SDS011;30298;52.562;13.414;2023-04-01T12:49:43;13.93;;;10.27;;
44588;SDS011;30298;52.562;13.414;2023-04-01T12:52:14;13.80;;;10.68;;
44588;SDS011;30298;52.562;13.414;2023-04-01T13:05:22;13.40;;;10.75;;
44588;SDS011;30298;52.562;13.414;2023-04-01T13:07:55;13.88;;;11.73;;
44588;SDS011;30298;52.562;13.414;2023-04-01T13:10:27;14.07;;;11.93;;
44588;SDS011;30298;52.562;13.414;2023-04-01T13:16:14;12.32;;;10.57;;
44588;SDS011;30298;52.562;13.414;2023-04-01T13:21:08;15.07;;;11.60;;
44588;SDS011;30298;52.562;13.414;2023-04-01T13:23:51;12.77;;;10.85;;
44588;SDS011;30298;52.562;13.414;2023-04-01T13:42:30;13.25;;;10.02;;
44588;SDS011;30298;52.562;13.414;2023-04-01T13:52:42;10.23;;;7.43;;
44588;SDS011;30298;52.562;13.414;2023-04-01T13:55:21;9.32;;;7.10;;
44588;SDS011;30298;52.562;13.414;2023-04-01T14:00:19;7.63;;;6.83;;
44588;SDS011;30298;52.562;13.414;2023-04-01T14:02:55;8.18;;;7.15;;
44588;SDS011;30298;52.562;13.414;2023-04-01T14:05:33;7.43;;;6.43;;
44588;SDS011;30298;52.562;13.414;2023-04-01T14:10:53;13.35;;;8.07;;
44588;SDS011;30298;52.562;13.414;2023-04-01T14:13:31;6.43;;;5.68;;
44588;SDS011;30298;52.562;13.414;2023-04-01T14:23:34;6.60;;;5.75;;
44588;SDS011;30298;52.562;13.414;2023-04-01T14:31:12;7.97;;;5.00;;
44588;SDS011;30298;52.562;13.414;2023-04-01T14:41:54;5.82;;;5.03;;
44588;SDS011;30298;52.562;13.414;2023-04-01T14:49:35;6.07;;;5.18;;
44588;SDS011;30298;52.562;13.414;2023-04-01T14:52:21;8.55;;;4.70;;
44588;SDS011;30298;52.562;13.414;2023-04-01T14:54:48;5.73;;;4.60;;
44588;SDS011;30298;52.562;13.414;2023-04-01T14:57:15;5.10;;;4.60;;
44588;SDS011;30298;52.562;13.414;2023-04-01T14:59:53;5.97;;;4.75;;
44588;SDS011;30298;52.562;13.414;2023-04-01T15:02:37;6.05;;;4.57;;
44588;SDS011;30298;52.562;13.414;2023-04-01T15:13:24;10.85;;;5.18;;
44588;SDS011;30298;52.562;13.414;2023-04-01T15:31:18;7.47;;;5.78;;
44588;SDS011;30298;52.562;13.414;2023-04-01T15:36:41;8.80;;;7.00;;
44588;SDS011;30298;52.562;13.414;2023-04-01T15:45:02;9.73;;;7.25;;
44588;SDS011;30298;52.562;13.414;2023-04-01T15:47:08;8.98;;;7.00;;
44588;SDS011;30298;52.562;13.414;2023-04-01T15:52:24;7.25;;;5.93;;
44588;SDS011;30298;52.562;13.414;2023-04-01T16:15:44;6.95;;;5.70;;
44588;SDS011;30298;52.562;13.414;2023-04-01T16:17:59;8.43;;;5.53;;
44588;SDS011;30298;52.562;13.414;2023-04-01T16:26:07;8.48;;;5.80;;
44588;SDS011;30298;52.562;13.414;2023-04-01T16:28:47;5.47;;;4.88;;
44588;SDS011;30298;52.562;13.414;2023-04-01T16:31:35;7.63;;;5.90;;
44588;SDS011;30298;52.562;13.414;2023-04-01T16:34:46;6.60;;;5.72;;
44588;SDS011;30298;52.562;13.414;2023-04-01T16:36:53;8.10;;;5.00;;
44588;SDS011;30298;52.562;13.414;2023-04-01T16:39:33;6.13;;;5.10;;
44588;SDS011;30298;52.562;13.414;2023-04-01T16:42:16;5.70;;;4.93;;
44588;SDS011;30298;52.562;13.414;2023-04-01T16:44:54;5.60;;;5.03;;
44588;SDS011;30298;52.562;13.414;2023-04-01T16:47:34;6.15;;;4.63;;
44588;SDS011;30298;52.562;13.414;2023-04-01T16:55:01;8.00;;;5.18;;
44588;SDS011;30298;52.562;13.414;2023-04-01T17:21:07;8.35;;;5.57;;
44588;SDS011;30298;52.562;13.414;2023-04-01T17:23:45;5.32;;;4.75;;
44588;SDS011;30298;52.562;13.414;2023-04-01T17:26:23;5.85;;;5.07;;
44588;SDS011;30298;52.562;13.414;2023-04-01T17:28:57;7.07;;;5.03;;
44588;SDS011;30298;52.562;13.414;2023-04-01T17:31:30;6.53;;;5.50;;
44588;SDS011;30298;52.562;13.414;2023-04-01T17:36:29;8.57;;;5.63;;
44588;SDS011;30298;52.562;13.414;2023-04-01T17:52:02;9.63;;;5.85;;
44588;SDS011;30298;52.562;13.414;2023-04-01T17:59:36;6.82;;;5.65;;
44588;SDS011;30298;52.562;13.414;2023-04-01T18:10:36;9.13;;;6.00;;
44588;SDS011;30298;52.562;13.414;2023-04-01T18:13:20;9.35;;;5.95;;
44588;SDS011;30298;52.562;13.414;2023-04-01T18:26:07;11.35;;;6.82;;
44588;SDS011;30298;52.562;13.414;2023-04-01T18:28:38;10.27;;;6.63;;
44588;SDS011;30298;52.562;13.414;2023-04-01T18:31:22;8.73;;;6.40;;
44588;SDS011;30298;52.562;13.414;2023-04-01T18:33:56;9.50;;;6.90;;
44588;SDS011;30298;52.562;13.414;2023-04-01T18:36:26;8.73;;;6.47;;
44588;SDS011;30298;52.562;13.414;2023-04-01T18:39:10;8.13;;;6.93;;
44588;SDS011;30298;52.562;13.414;2023-04-01T18:46:36;10.05;;;8.00;;
44588;SDS011;30298;52.562;13.414;2023-04-01T18:51:37;9.85;;;7.25;;
44588;SDS011;30298;52.562;13.414;2023-04-01T18:56:39;12.57;;;7.78;;
44588;SDS011;30298;52.562;13.414;2023-04-01T18:59:21;10.68;;;7.20;;
44588;SDS011;30298;52.562;13.414;2023-04-01T19:04:26;10.53;;;7.10;;
44588;SDS011;30298;52.562;13.414;2023-04-01T19:06:54;13.20;;;8.07;;
44588;SDS011;30298;52.562;13.414;2023-04-01T19:09:22;13.68;;;7.38;;
44588;SDS011;30298;52.562;13.414;2023-04-01T19:14:30;13.70;;;8.40;;
44588;SDS011;30298;52.562;13.414;2023-04-01T19:22:48;13.75;;;7.70;;
44588;SDS011;30298;52.562;13.414;2023-04-01T19:24:50;11.00;;;7.35;;
44588;SDS011;30298;52.562;13.414;2023-04-01T19:27:34;13.40;;;8.43;;
44588;SDS011;30298;52.562;13.414;2023-04-01T19:35:10;15.75;;;8.93;;
44588;SDS011;30298;52.562;13.414;2023-04-01T19:37:51;13.50;;;8.65;;
44588;SDS011;30298;52.562;13.414;2023-04-01T19:40:23;16.88;;;8.88;;
44588;SDS011;30298;52.562;13.414;2023-04-01T19:52:48;13.90;;;9.20;;
44588;SDS011;30298;52.562;13.414;2023-04-01T19:55:31;18.20;;;10.40;;
44588;SDS011;30298;52.562;13.414;2023-04-01T19:58:06;15.07;;;9.70;;
44588;SDS011;30298;52.562;13.414;2023-04-01T20:00:36;15.98;;;9.50;;
44588;SDS011;30298;52.562;13.414;2023-04-01T20:03:03;17.15;;;9.65;;
44588;SDS011;30298;52.562;13.414;2023-04-01T20:10:44;16.90;;;10.57;;
44588;SDS011;30298;52.562;13.414;2023-04-01T20:15:37;17.20;;;9.67;;
44588;SDS011;30298;52.562;13.414;2023-04-01T20:18:15;14.57;;;8.95;;
44588;SDS011;30298;52.562;13.414;2023-04-01T20:20:51;13.93;;;10.13;;
44588;SDS011;30298;52.562;13.414;2023-04-01T20:23:26;18.02;;;10.05;;
44588;SDS011;30298;52.562;13.414;2023-04-01T20:26:02;17.10;;;10.13;;
44588;SDS011;30298;52.562;13.414;2023-04-01T20:28:42;16.98;;;10.20;;
44588;SDS011;30298;52.562;13.414;2023-04-01T20:31:20;15.80;;;10.18;;
44588;SDS011;30298;52.562;13.414;2023-04-01T20:36:46;13.95;;;9.68;;
44588;SDS011;30298;52.562;13.414;2023-04-01T20:39:40;16.33;;;9.68;;
44588;SDS011;30298;52.562;13.414;2023-04-01T20:49:51;19.38;;;10.82;;
44588;SDS011;30298;52.562;13.414;2023-04-01T20:52:32;17.88;;;10.32;;
44588;SDS011;30298;52.562;13.414;2023-04-01T20:57:41;18.17;;;10.93;;
44588;SDS011;30298;52.562;13.414;2023-04-01T21:10:46;15.40;;;10.13;;
44588;SDS011;30298;52.562;13.414;2023-04-01T21:21:07;15.07;;;8.82;;
44588;SDS011;30298;52.562;13.414;2023-04-01T21:23:46;16.88;;;9.30;;
44588;SDS011;30298;52.562;13.414;2023-04-01T21:26:21;12.43;;;8.00;;
44588;SDS011;30298;52.562;13.414;2023-04-01T21:31:42;19.65;;;9.25;;
44588;SDS011;30298;52.562;13.414;2023-04-01T21:36:52;13.13;;;8.85;;
44588;SDS011;30298;52.562;13.414;2023-04-01T21:39:31;14.45;;;8.45;;
44588;SDS011;30298;52.562;13.414;2023-04-01T22:19:26;8.00;;;6.32;;
44588;SDS011;30298;52.562;13.414;2023-04-01T22:26:42;8.38;;;5.90;;
44588;SDS011;30298;52.562;13.414;2023-04-01T22:31:55;7.90;;;5.57;;
44588;SDS011;30298;52.562;13.414;2023-04-01T22:39:29;8.07;;;5.53;;
44588;SDS011;30298;52.562;13.414;2023-04-01T22:42:16;9.77;;;5.97;;
44588;SDS011;30298;52.562;13.414;2023-04-01T22:45:30;8.07;;;6.07;;
44588;SDS011;30298;52.562;13.414;2023-04-01T22:50:22;8.02;;;5.78;;
44588;SDS011;30298;52.562;13.414;2023-04-01T22:52:51;12.18;;;7.07;;
44588;SDS011;30298;52.562;13.414;2023-04-01T22:55:20;8.20;;;6.32;;
44588;SDS011;30298;52.562;13.414;2023-04-01T23:00:28;9.10;;;6.35;;
44588;SDS011;30298;52.562;13.414;2023-04-01T23:05:30;10.05;;;6.93;;
44588;SDS011;30298;52.562;13.414;2023-04-01T23:10:44;6.55;;;5.60;;
44588;SDS011;30298;52.562;13.414;2023-04-01T23:13:16;7.95;;;5.32;;
44588;SDS011;30298;52.562;13.414;2023-04-01T23:15:43;6.28;;;4.93;;
44588;SDS011;30298;52.562;13.414;2023-04-01T23:18:11;6.50;;;4.88;;
44588;SDS011;30298;52.562;13.414;2023-04-01T23:23:20;6.43;;;5.13;;
44588;SDS011;30298;52.562;13.414;2023-04-01T23:28:38;7.28;;;5.85;;
44588;SDS011;30298;52.562;13.414;2023-04-01T23:31:20;9.20;;;5.60;;
44588;SDS011;30298;52.562;13.414;2023-04-01T23:33:56;8.07;;;5.00;;
44588;SDS011;30298;52.562;13.414;2023-04-01T23:36:23;7.93;;;5.40;;
44588;SDS011;30298;52.562;13.414;2023-04-01T23:38:49;10.35;;;5.65;;
44588;SDS011;30298;52.562;13.414;2023-04-01T23:41:32;7.53;;;5.47;;
44588;SDS011;30298;52.562;13.414;2023-04-01T23:44:00;12.40;;;5.53;;
44588;SDS011;30298;52.562;13.414;2023-04-01T23:46:26;9.52;;;5.88;;
44588;SDS011;30298;52.562;13.414;2023-04-01T23:48:52;8.05;;;5.75;;
44588;SDS011;30298;52.562;13.414;2023-04-01T23:51:21;10.57;;;6.15;;
44588;SDS011;30298;52.562;13.414;2023-04-01T23:53:48;9.88;;;6.18;;
44588;SDS011;30298;52.562;13.414;2023-04-01T23:56:20;7.90;;;5.80;;
44588;SDS011;30298;52.562;13.414;2023-04-01T23:58:47;10.65;;;6.30;;
